DAL22 KHRL-KPOE
Flight info
| Callsign | DAL22 |
|---|---|
| Flight time | N/A |
| Altitude | 35000 |
| Route | CRP J22 LCH |
| Aircraft | B738/M-SDE2E3FGHIRWXY/LB1 |
Departure
| Time | 2026-05-05 20:20 |
|---|---|
| Airport | Valley International Airport (KHRL) |
Arrival
| Time | N/A |
|---|---|
| Airport | Polk Army Air Field (KPOE) |
| Time | Latitude | Longitude | Altitude | Speed | Heading |
|---|---|---|---|---|---|
| 2026-05-05 20:00 | 26.22849 | -97.66171 | 71 ft | 0 kts | 226° |
| 2026-05-05 20:10 | 26.22856 | -97.66161 | 44 ft | 2 kts | 266° |
| 2026-05-05 20:11 | 26.22856 | -97.66154 | 44 ft | 0 kts | 304° |
| 2026-05-05 20:14 | 26.22856 | -97.66155 | 44 ft | 0 kts | 304° |
| 2026-05-05 20:14 | 26.22857 | -97.66157 | 44 ft | 0 kts | 304° |
| 2026-05-05 20:16 | 26.22864 | -97.66153 | 41 ft | 3 kts | 44° |
| 2026-05-05 20:16 | 26.22860 | -97.66118 | 42 ft | 5 kts | 102° |
| 2026-05-05 20:16 | 26.22853 | -97.66078 | 41 ft | 6 kts | 98° |
| 2026-05-05 20:16 | 26.22873 | -97.66038 | 40 ft | 8 kts | 19° |
| 2026-05-05 20:17 | 26.22941 | -97.66036 | 42 ft | 11 kts | 356° |
| 2026-05-05 20:17 | 26.23016 | -97.66044 | 42 ft | 11 kts | 359° |
| 2026-05-05 20:17 | 26.23137 | -97.66034 | 43 ft | 26 kts | 4° |
| 2026-05-05 20:17 | 26.23343 | -97.66031 | 44 ft | 31 kts | 0° |
| 2026-05-05 20:18 | 26.23553 | -97.66030 | 44 ft | 29 kts | 360° |
| 2026-05-05 20:18 | 26.23747 | -97.66028 | 45 ft | 27 kts | 2° |
| 2026-05-05 20:18 | 26.23933 | -97.66024 | 45 ft | 26 kts | 1° |
| 2026-05-05 20:18 | 26.24019 | -97.66005 | 45 ft | 9 kts | 43° |
| 2026-05-05 20:19 | 26.24027 | -97.65954 | 45 ft | 3 kts | 89° |
| 2026-05-05 20:19 | 26.24027 | -97.65942 | 46 ft | 4 kts | 90° |
| 2026-05-05 20:19 | 26.24017 | -97.65869 | 45 ft | 11 kts | 126° |
| 2026-05-05 20:19 | 26.23800 | -97.65858 | 47 ft | 73 kts | 180° |
| 2026-05-05 20:20 | 26.22992 | -97.65871 | 60 ft | 154 kts | 178° |
| 2026-05-05 20:20 | 26.21867 | -97.65773 | 907 ft | 166 kts | 160° |
| 2026-05-05 20:20 | 26.21021 | -97.64913 | 1972 ft | 184 kts | 121° |
| 2026-05-05 20:20 | 26.20888 | -97.63368 | 2362 ft | 227 kts | 81° |
| 2026-05-05 20:21 | 26.21661 | -97.61717 | 2879 ft | 247 kts | 62° |
| 2026-05-05 20:21 | 26.22614 | -97.59970 | 2975 ft | 278 kts | 65° |
| 2026-05-05 20:21 | 26.23622 | -97.58117 | 2985 ft | 280 kts | 63° |
| 2026-05-05 20:21 | 26.24615 | -97.56241 | 3004 ft | 280 kts | 64° |
| 2026-05-05 20:22 | 26.25614 | -97.54383 | 3000 ft | 278 kts | 63° |
| 2026-05-05 20:22 | 26.26646 | -97.52570 | 2990 ft | 278 kts | 54° |
| 2026-05-05 20:22 | 26.28243 | -97.51354 | 3010 ft | 287 kts | 17° |
| 2026-05-05 20:22 | 26.30263 | -97.51223 | 3533 ft | 296 kts | 357° |
| 2026-05-05 20:23 | 26.32306 | -97.51227 | 4672 ft | 291 kts | 359° |
| 2026-05-05 20:23 | 26.34310 | -97.51179 | 5574 ft | 294 kts | 0° |
| 2026-05-05 20:23 | 26.36364 | -97.51108 | 6430 ft | 298 kts | 0° |
| 2026-05-05 20:23 | 26.38449 | -97.51029 | 7267 ft | 300 kts | 0° |
| 2026-05-05 20:24 | 26.40533 | -97.50947 | 8172 ft | 301 kts | 1° |
| 2026-05-05 20:24 | 26.42656 | -97.50862 | 8907 ft | 308 kts | 359° |
| 2026-05-05 20:24 | 26.44806 | -97.50777 | 9734 ft | 312 kts | 1° |
| 2026-05-05 20:24 | 26.46995 | -97.50686 | 10422 ft | 318 kts | 358° |
| 2026-05-05 20:25 | 26.49277 | -97.50594 | 10711 ft | 341 kts | 359° |
| 2026-05-05 20:25 | 26.51734 | -97.50496 | 10921 ft | 362 kts | 359° |
| 2026-05-05 20:25 | 26.54292 | -97.50391 | 11410 ft | 372 kts | 359° |
| 2026-05-05 20:25 | 26.56852 | -97.50281 | 12100 ft | 374 kts | 360° |
| 2026-05-05 20:26 | 26.59460 | -97.50167 | 12824 ft | 376 kts | 359° |
| 2026-05-05 20:26 | 26.62089 | -97.50053 | 13554 ft | 378 kts | 359° |
| 2026-05-05 20:26 | 26.64724 | -97.49939 | 14179 ft | 381 kts | 359° |
| 2026-05-05 20:26 | 26.67388 | -97.49824 | 14806 ft | 384 kts | 358° |
| 2026-05-05 20:27 | 26.70070 | -97.49708 | 15445 ft | 386 kts | 358° |
| 2026-05-05 20:27 | 26.72766 | -97.49593 | 16065 ft | 389 kts | 358° |
| 2026-05-05 20:27 | 26.75489 | -97.49476 | 16684 ft | 392 kts | 358° |
| 2026-05-05 20:27 | 26.78228 | -97.49359 | 17288 ft | 396 kts | 358° |
| 2026-05-05 20:28 | 26.80994 | -97.49241 | 17894 ft | 398 kts | 358° |
| 2026-05-05 20:28 | 26.83777 | -97.49122 | 18442 ft | 401 kts | 358° |
| 2026-05-05 20:28 | 26.86546 | -97.49003 | 18941 ft | 405 kts | 357° |
| 2026-05-05 20:28 | 26.89378 | -97.48882 | 19429 ft | 408 kts | 357° |
| 2026-05-05 20:29 | 26.92226 | -97.48760 | 19922 ft | 411 kts | 357° |
| 2026-05-05 20:29 | 26.95105 | -97.48636 | 20415 ft | 415 kts | 357° |
| 2026-05-05 20:29 | 26.98002 | -97.48512 | 20917 ft | 418 kts | 356° |
| 2026-05-05 20:29 | 27.00926 | -97.48386 | 21381 ft | 422 kts | 356° |
| 2026-05-05 20:30 | 27.03869 | -97.48259 | 21864 ft | 425 kts | 356° |